DNPO

Port Harcourt International Airport

Airport
ICAO code
DNPO
IATA Code
PHC
Summary
ICAO Region
AFI
ICAO Territory
Location

Omagwa, Rivers State

Serving
Port Harcourt
Elevation
87 ft
Coordinates
5° 0' 49" N , 6° 57' 3" E
KCC
Metar
Observation
DNPO 271100Z 22005KT 8000 BKN011 FEW020CB 32/25 Q1009 NOSIG
Station
Port Harcourt
Date/Time
2023-01-27 11:00:00
Wind direction
220°
Wind speed
05 kts
Lowest cloud amount
broken clouds
Temperature
32°C
Dew point
25°C
Humidity
66%
QNH
1009 hPa
Weather condition
n/a

Port Harcourt International Airport is located in Port Harcourt, a city in the Rivers State of Nigeria. It is the main airport serving southeastern Nigeria.

Climatology

Tropical Monsoon climate (Köppen climate classification Am)

Runways

Designator Length Width Surface Rops
3/21 3001 60 ASP Yes/Yes

SKYbrary Partners:

Safety knowledge contributed by: